createdAt,value
2023-07-01T00:00:21.878Z,1.80
2023-07-01T00:05:24.632Z,4.25
2023-07-01T00:10:27.800Z,2.20
2023-07-01T00:15:31.013Z,1.90
2023-07-01T00:20:34.099Z,2.27
2023-07-01T00:25:36.756Z,2.50
2023-07-01T00:30:39.474Z,2.45
2023-07-01T00:35:42.176Z,2.45
2023-07-01T00:40:45.253Z,1.67
2023-07-01T00:45:47.963Z,2.30
2023-07-01T00:50:51.171Z,2.00
2023-07-01T00:55:54.906Z,1.65
2023-07-01T01:01:00.290Z,2.05
2023-07-01T01:06:25.383Z,2.30
2023-07-01T01:11:30.910Z,2.15
2023-07-01T01:16:35.413Z,1.85
2023-07-01T01:21:39.498Z,1.83
2023-07-01T01:26:44.766Z,2.08
2023-07-01T01:31:47.654Z,1.60
2023-07-01T01:36:56.082Z,1.35
2023-07-01T01:42:07.519Z,1.25
2023-07-01T01:47:10.407Z,1.48
2023-07-01T01:52:17.023Z,1.70
2023-07-01T01:57:20.399Z,1.70
2023-07-01T02:02:23.048Z,1.20
2023-07-01T02:07:26.049Z,0.93
2023-07-01T02:12:28.621Z,1.88
2023-07-01T02:17:31.312Z,1.73
2023-07-01T02:22:34.007Z,2.10
2023-07-01T02:27:36.585Z,2.20
2023-07-01T02:32:40.046Z,2.57
2023-07-01T02:37:42.592Z,2.45
2023-07-01T02:42:45.312Z,1.85
2023-07-01T02:47:47.991Z,2.80
2023-07-01T02:52:50.547Z,2.72
2023-07-01T02:57:53.266Z,2.58
2023-07-01T03:02:56.071Z,2.53
2023-07-01T03:07:58.655Z,2.05
2023-07-01T03:13:01.666Z,2.25
2023-07-01T03:18:05.056Z,2.80
2023-07-01T03:23:08.206Z,2.77
2023-07-01T03:28:10.919Z,2.70
2023-07-01T03:33:14.180Z,2.33
2023-07-01T03:38:17.050Z,2.70
2023-07-01T03:43:19.700Z,2.80
2023-07-01T03:48:22.508Z,2.72
2023-07-01T03:53:25.336Z,2.53
2023-07-01T03:58:27.877Z,2.50
2023-07-01T04:03:30.486Z,2.45
2023-07-01T04:08:33.147Z,2.60
2023-07-01T04:13:35.811Z,2.90
2023-07-01T04:18:38.584Z,3.75
2023-07-01T04:23:41.247Z,2.60
2023-07-01T04:28:43.882Z,4.55
2023-07-01T04:33:46.910Z,4.35
2023-07-01T04:38:49.898Z,5.32
2023-07-01T04:43:52.431Z,5.78
2023-07-01T04:48:55.146Z,3.88
2023-07-01T04:53:57.837Z,4.95
2023-07-01T04:59:00.558Z,5.03
2023-07-01T05:04:03.367Z,4.55
2023-07-01T05:09:07.871Z,5.15
2023-07-01T05:14:10.586Z,145.18
2023-07-01T05:19:13.246Z,110.95
2023-07-01T05:24:16.271Z,784.28
2023-07-01T05:29:19.863Z,999.90
2023-07-01T05:34:22.610Z,999.90
2023-07-01T05:39:25.666Z,999.90
2023-07-01T05:44:28.595Z,999.90
2023-07-01T05:49:31.336Z,10.20
2023-07-01T05:54:33.975Z,999.90
2023-07-01T05:59:36.885Z,17.80
2023-07-01T06:04:39.602Z,717.95
2023-07-01T06:09:49.275Z,504.05
2023-07-01T06:14:51.838Z,458.52
2023-07-01T06:19:54.531Z,356.83
2023-07-01T06:24:57.529Z,999.90
2023-07-01T06:30:00.283Z,999.90
2023-07-01T06:35:03.021Z,999.90
2023-07-01T06:40:06.345Z,999.90
2023-07-01T06:45:09.260Z,999.90
2023-07-01T06:50:11.883Z,999.90
2023-07-01T06:55:17.420Z,999.90
2023-07-01T07:00:20.330Z,999.90
2023-07-01T07:05:22.994Z,999.90
2023-07-01T07:10:25.538Z,3.08
2023-07-01T07:15:28.223Z,3.03
2023-07-01T07:20:30.869Z,2.13
2023-07-01T07:25:37.467Z,1.30
2023-07-01T07:30:40.225Z,1.83
2023-07-01T07:35:43.006Z,1.60
2023-07-01T07:40:46.062Z,1.60
2023-07-01T07:45:49.170Z,1.65
2023-07-01T07:50:51.707Z,1.80
2023-07-01T07:55:54.390Z,5.32
2023-07-01T08:00:56.917Z,2.58
2023-07-01T08:05:59.597Z,2.58
2023-07-01T08:11:02.517Z,2.77
2023-07-01T08:16:06.670Z,3.90
2023-07-01T08:21:09.408Z,3.90
2023-07-01T08:26:12.134Z,2.30
2023-07-01T08:31:15.008Z,3.22
2023-07-01T08:36:17.833Z,3.53
2023-07-01T08:41:23.909Z,3.67
2023-07-01T08:46:26.859Z,3.92
2023-07-01T08:51:42.599Z,4.10
2023-07-01T08:56:49.395Z,4.30
2023-07-01T09:01:52.554Z,4.05
2023-07-01T09:06:55.386Z,4.30
2023-07-01T09:11:58.023Z,4.30
2023-07-01T09:17:00.646Z,2.38
2023-07-01T09:22:10.248Z,3.80
2023-07-01T09:27:12.921Z,4.78
2023-07-01T09:32:30.716Z,3.92
2023-07-01T09:37:34.394Z,4.50
2023-07-01T09:42:52.011Z,3.97
2023-07-01T09:47:54.978Z,3.72
2023-07-01T09:52:58.842Z,4.03
2023-07-01T09:58:01.528Z,6.05
2023-07-01T10:03:04.674Z,5.20
2023-07-01T10:08:08.221Z,5.38
2023-07-01T10:18:24.351Z,6.50
2023-07-01T10:23:45.578Z,5.65
2023-07-01T10:28:48.160Z,5.80
2023-07-01T10:33:54.871Z,5.03
2023-07-01T10:39:35.261Z,4.85
2023-07-01T10:44:38.064Z,4.15
2023-07-01T10:50:04.536Z,4.28
2023-07-01T10:55:46.685Z,4.00
2023-07-01T11:00:57.135Z,6.25
2023-07-01T11:06:00.367Z,13.88
2023-07-01T11:16:08.746Z,4.13
2023-07-01T11:21:13.494Z,3.63
2023-07-01T11:26:27.129Z,3.78
2023-07-01T11:31:34.487Z,3.60
2023-07-01T11:36:41.307Z,3.20
2023-07-01T11:41:46.514Z,3.10
2023-07-01T11:46:49.333Z,3.60
2023-07-01T11:51:56.974Z,3.72
2023-07-01T11:57:20.209Z,3.97
2023-07-01T12:02:34.187Z,3.42
2023-07-01T12:07:37.100Z,3.75
2023-07-01T12:12:40.027Z,3.90
2023-07-01T12:17:43.091Z,3.33
2023-07-01T12:22:45.792Z,3.60
2023-07-01T12:27:48.351Z,3.72
2023-07-01T12:32:52.318Z,3.40
2023-07-01T12:37:55.892Z,3.47
2023-07-01T12:48:02.732Z,3.28
2023-07-01T12:53:05.421Z,3.30
2023-07-01T12:58:08.152Z,3.27
2023-07-01T13:03:10.855Z,3.37
2023-07-01T13:08:14.796Z,3.63
2023-07-01T13:13:17.528Z,3.58
2023-07-01T13:18:24.638Z,3.30
2023-07-01T13:23:32.127Z,3.95
2023-07-01T13:28:36.121Z,4.57
2023-07-01T13:33:41.856Z,5.05
2023-07-01T13:38:44.645Z,4.70
2023-07-01T13:43:47.787Z,4.53
2023-07-01T13:48:51.467Z,4.72
2023-07-01T13:53:56.295Z,4.75
2023-07-01T13:58:59.405Z,5.03
2023-07-01T14:04:02.866Z,5.53
2023-07-01T14:09:05.723Z,4.95
2023-07-01T14:14:08.450Z,4.78
2023-07-01T14:19:12.930Z,4.70
2023-07-01T14:24:25.346Z,4.72
2023-07-01T14:29:29.263Z,5.15
2023-07-01T14:34:42.415Z,4.43
2023-07-01T14:39:55.677Z,4.18
2023-07-01T14:44:59.410Z,4.10
2023-07-01T14:55:05.171Z,4.35
2023-07-01T15:00:08.687Z,4.88
2023-07-01T15:10:14.048Z,5.47
2023-07-01T15:15:16.845Z,6.05
2023-07-01T15:20:19.525Z,5.53
2023-07-01T15:25:22.138Z,5.35
2023-07-01T15:30:24.794Z,5.25
2023-07-01T15:35:28.409Z,6.10
2023-07-01T15:40:32.192Z,6.28
2023-07-01T15:45:35.568Z,6.43
2023-07-01T15:50:38.229Z,6.20
2023-07-01T15:55:41.031Z,5.88
2023-07-01T16:00:43.698Z,6.10
2023-07-01T16:05:47.556Z,6.70
2023-07-01T16:16:02.040Z,6.25
2023-07-01T16:21:05.773Z,6.10
2023-07-01T16:31:23.296Z,7.00
2023-07-01T16:36:35.943Z,6.45
2023-07-01T16:41:38.691Z,8.23
2023-07-01T16:46:42.811Z,7.47
2023-07-01T16:51:45.813Z,6.60
2023-07-01T16:56:55.105Z,7.77
2023-07-01T17:01:58.674Z,7.15
2023-07-01T17:07:01.415Z,7.05
2023-07-01T17:12:04.510Z,8.20
2023-07-01T17:17:18.394Z,8.27
2023-07-01T17:22:23.909Z,7.18
2023-07-01T17:27:27.168Z,6.88
2023-07-01T17:32:30.785Z,7.07
2023-07-01T17:37:33.771Z,6.97
2023-07-01T17:42:36.662Z,7.68
2023-07-01T17:47:39.649Z,7.60
2023-07-01T17:52:42.603Z,6.47
2023-07-01T18:02:51.677Z,5.68
2023-07-01T18:07:54.457Z,5.50
2023-07-01T18:12:57.095Z,6.50
2023-07-01T18:17:59.781Z,6.35
2023-07-01T18:23:02.528Z,6.20
2023-07-01T18:28:05.287Z,6.60
2023-07-01T18:33:07.884Z,6.53
2023-07-01T18:38:10.611Z,6.38
2023-07-01T18:43:13.304Z,7.28
2023-07-01T18:48:16.027Z,6.65
2023-07-01T18:53:19.022Z,7.82
2023-07-01T18:58:23.121Z,7.40
2023-07-01T19:03:25.822Z,6.72
2023-07-01T19:08:28.552Z,6.45
2023-07-01T19:13:31.732Z,6.35
2023-07-01T19:18:34.671Z,5.35
2023-07-01T19:23:38.092Z,5.88
2023-07-01T19:28:40.810Z,7.00
2023-07-01T19:33:43.722Z,7.28
2023-07-01T19:38:46.539Z,6.97
2023-07-01T19:43:52.744Z,8.32
2023-07-01T19:48:55.718Z,7.50
2023-07-01T19:53:58.338Z,7.80
2023-07-01T19:59:01.012Z,7.63
2023-07-01T20:10:39.416Z,7.15
2023-07-01T20:15:44.966Z,7.30
2023-07-01T20:20:47.744Z,7.22
2023-07-01T20:25:50.481Z,7.82
2023-07-01T20:30:53.424Z,6.95
2023-07-01T20:35:56.341Z,8.15
2023-07-01T20:40:59.106Z,8.63
2023-07-01T20:46:01.667Z,8.65
2023-07-01T20:51:04.569Z,8.65
2023-07-01T20:56:07.229Z,9.20
2023-07-01T21:01:09.762Z,7.63
2023-07-01T21:06:12.497Z,5.85
2023-07-01T21:11:15.264Z,6.60
2023-07-01T21:16:17.793Z,6.35
2023-07-01T21:21:20.548Z,128.30
2023-07-01T21:26:28.402Z,90.70
2023-07-01T21:31:32.179Z,449.92
2023-07-01T21:36:34.996Z,2.50
2023-07-01T21:41:42.099Z,1.17
2023-07-01T21:46:44.938Z,999.90
2023-07-01T21:51:48.537Z,211.00
2023-07-01T21:56:51.418Z,87.20
2023-07-01T22:01:54.118Z,127.53
2023-07-01T22:06:56.721Z,6.93
2023-07-01T22:11:59.227Z,7.15
2023-07-01T22:17:01.958Z,8.25
2023-07-01T22:22:04.619Z,94.22
2023-07-01T22:27:07.816Z,55.80
2023-07-01T22:32:10.549Z,11.60
2023-07-01T22:37:13.925Z,10.07
2023-07-01T22:42:16.505Z,444.90
2023-07-01T22:47:19.437Z,870.10
2023-07-01T22:52:21.978Z,999.90
2023-07-01T22:57:24.628Z,11.02
2023-07-01T23:02:27.611Z,26.55
2023-07-01T23:07:30.243Z,4.57
2023-07-01T23:12:34.551Z,8.52
2023-07-01T23:22:40.019Z,5.63
2023-07-01T23:27:45.655Z,627.65
2023-07-01T23:32:54.314Z,850.90
2023-07-01T23:37:58.903Z,18.90
2023-07-01T23:43:01.503Z,5.22
2023-07-01T23:48:04.331Z,6.03
2023-07-01T23:53:06.873Z,5.93
2023-07-01T23:58:09.384Z,6.45
